createdAt,value
2017-06-13T00:01:07.527Z,8.90
2017-06-13T00:03:36.596Z,7.80
2017-06-13T00:06:05.685Z,5.97
2017-06-13T00:08:35.478Z,8.17
2017-06-13T00:11:05.351Z,7.57
2017-06-13T00:13:34.405Z,8.63
2017-06-13T00:16:03.458Z,7.83
2017-06-13T00:18:32.576Z,7.93
2017-06-13T00:21:01.673Z,7.33
2017-06-13T00:23:30.721Z,9.43
2017-06-13T00:25:59.817Z,8.93
2017-06-13T00:28:29.376Z,11.57
2017-06-13T00:30:58.406Z,9.97
2017-06-13T00:33:27.471Z,8.90
2017-06-13T00:35:57.105Z,5.93
2017-06-13T00:38:26.155Z,6.10
2017-06-13T00:40:55.228Z,5.67
2017-06-13T00:43:24.313Z,8.37
2017-06-13T00:45:53.377Z,8.87
2017-06-13T00:48:22.440Z,7.87
2017-06-13T00:50:51.500Z,8.17
2017-06-13T00:53:20.653Z,14.40
2017-06-13T00:55:49.720Z,11.20
2017-06-13T00:58:18.793Z,13.30
2017-06-13T01:00:47.849Z,7.20
2017-06-13T01:03:16.900Z,7.33
2017-06-13T01:05:45.988Z,8.80
2017-06-13T01:08:15.121Z,8.17
2017-06-13T01:10:44.948Z,7.00
2017-06-13T01:13:14.018Z,6.80
2017-06-13T01:15:43.844Z,8.80
2017-06-13T01:18:12.901Z,6.63
2017-06-13T01:20:41.972Z,7.47
2017-06-13T01:23:11.047Z,8.33
2017-06-13T01:25:40.123Z,7.70
2017-06-13T01:28:09.835Z,8.30
2017-06-13T01:30:40.167Z,8.70
2017-06-13T01:33:09.219Z,7.60
2017-06-13T01:35:38.269Z,8.03
2017-06-13T01:38:07.383Z,8.17
2017-06-13T01:40:36.418Z,8.87
2017-06-13T01:43:05.464Z,11.70
2017-06-13T01:45:34.536Z,11.17
2017-06-13T01:48:03.597Z,12.10
2017-06-13T01:50:32.659Z,12.00
2017-06-13T01:53:01.739Z,5.83
2017-06-13T01:55:30.795Z,11.90
2017-06-13T01:58:00.624Z,9.70
2017-06-13T02:00:29.696Z,7.83
2017-06-13T02:02:58.761Z,7.60
2017-06-13T02:05:27.820Z,8.23
2017-06-13T02:07:56.895Z,10.17
2017-06-13T02:10:26.725Z,12.33
2017-06-13T02:12:55.803Z,7.97
2017-06-13T02:15:25.635Z,10.70
2017-06-13T02:17:54.718Z,8.70
2017-06-13T02:20:23.767Z,10.77
2017-06-13T02:22:52.819Z,12.63
2017-06-13T02:25:21.888Z,11.03
2017-06-13T02:27:51.703Z,8.23
2017-06-13T02:30:21.555Z,7.83
2017-06-13T02:32:50.623Z,9.30
2017-06-13T02:35:19.692Z,9.33
2017-06-13T02:37:49.537Z,7.87
2017-06-13T02:40:18.603Z,9.93
2017-06-13T02:42:47.689Z,12.73
2017-06-13T02:45:16.998Z,9.83
2017-06-13T02:47:46.041Z,14.50
2017-06-13T02:50:15.105Z,17.43
2017-06-13T02:52:44.169Z,9.70
2017-06-13T02:55:13.254Z,9.30
2017-06-13T02:57:42.332Z,9.33
2017-06-13T03:00:11.515Z,10.37
2017-06-13T03:02:40.595Z,12.63
2017-06-13T03:05:09.662Z,10.67
2017-06-13T03:07:39.479Z,8.97
2017-06-13T03:10:09.356Z,11.93
2017-06-13T03:12:38.417Z,7.40
2017-06-13T03:15:07.502Z,10.57
2017-06-13T03:17:36.561Z,10.87
2017-06-13T03:20:05.611Z,12.27
2017-06-13T03:22:34.712Z,9.40
2017-06-13T03:25:03.759Z,10.63
2017-06-13T03:27:33.652Z,11.50
2017-06-13T03:30:03.156Z,9.13
2017-06-13T03:32:32.208Z,11.90
2017-06-13T03:35:01.297Z,9.87
2017-06-13T03:37:30.376Z,6.70
2017-06-13T03:40:00.212Z,10.70
2017-06-13T03:42:29.282Z,13.43
2017-06-13T03:44:59.097Z,8.17
2017-06-13T03:47:28.963Z,9.73
2017-06-13T03:49:58.033Z,12.50
2017-06-13T03:52:27.108Z,8.60
2017-06-13T03:54:56.188Z,9.30
2017-06-13T03:57:25.239Z,11.37
2017-06-13T03:59:54.323Z,13.83
2017-06-13T04:02:23.372Z,11.87
2017-06-13T04:04:52.443Z,8.50
2017-06-13T04:07:21.773Z,15.20
2017-06-13T04:09:51.599Z,11.53
2017-06-13T04:12:20.664Z,14.83
2017-06-13T04:14:49.737Z,10.50
2017-06-13T04:17:18.835Z,11.83
2017-06-13T04:19:47.895Z,11.30
2017-06-13T04:22:16.955Z,9.67
2017-06-13T04:24:46.024Z,14.90
2017-06-13T04:27:15.095Z,7.90
2017-06-13T04:29:44.140Z,16.80
2017-06-13T04:32:13.984Z,12.53
2017-06-13T04:34:43.066Z,9.03
2017-06-13T04:37:12.128Z,8.83
2017-06-13T04:39:41.185Z,13.43
2017-06-13T04:42:10.260Z,24.40
2017-06-13T04:44:39.327Z,10.83
2017-06-13T04:47:08.397Z,14.47
2017-06-13T04:49:37.504Z,10.33
2017-06-13T04:52:07.468Z,15.10
2017-06-13T04:54:36.564Z,11.50
2017-06-13T04:57:05.723Z,9.83
2017-06-13T04:59:34.795Z,9.53
2017-06-13T05:02:03.877Z,19.50
2017-06-13T05:04:32.936Z,13.73
2017-06-13T05:07:02.032Z,12.10
2017-06-13T05:09:31.835Z,11.93
2017-06-13T05:12:01.687Z,13.47
2017-06-13T05:14:30.741Z,11.27
2017-06-13T05:17:00.556Z,9.47
2017-06-13T05:19:29.654Z,11.67
2017-06-13T05:21:59.458Z,10.80
2017-06-13T05:24:28.541Z,11.30
2017-06-13T05:26:57.607Z,13.70
2017-06-13T05:29:26.680Z,12.83
2017-06-13T05:31:55.740Z,16.90
2017-06-13T05:34:25.571Z,14.80
2017-06-13T05:36:54.627Z,14.77
2017-06-13T05:39:23.692Z,10.33
2017-06-13T05:41:52.781Z,13.80
2017-06-13T05:44:21.830Z,11.60
2017-06-13T05:46:51.656Z,14.10
2017-06-13T05:49:20.743Z,12.00
2017-06-13T05:51:50.574Z,13.67
2017-06-13T05:54:19.631Z,17.57
2017-06-13T05:56:48.720Z,13.30
2017-06-13T05:59:17.787Z,14.03
2017-06-13T06:01:46.855Z,14.57
2017-06-13T06:04:15.936Z,15.40
2017-06-13T06:06:45.020Z,14.10
2017-06-13T06:09:14.890Z,16.47
2017-06-13T06:11:43.967Z,13.83
2017-06-13T06:14:13.020Z,10.33
2017-06-13T06:16:42.865Z,16.53
2017-06-13T06:19:11.918Z,15.30
2017-06-13T06:21:40.988Z,14.50
2017-06-13T06:24:10.061Z,41.13
2017-06-13T06:26:39.120Z,15.27
2017-06-13T06:29:09.152Z,18.60
2017-06-13T06:31:38.219Z,12.63
2017-06-13T06:34:07.307Z,13.70
2017-06-13T06:36:36.453Z,13.00
2017-06-13T06:39:05.513Z,23.40
2017-06-13T06:41:35.337Z,13.40
2017-06-13T06:44:05.235Z,13.97
2017-06-13T06:46:34.291Z,13.30
2017-06-13T06:49:03.346Z,13.93
2017-06-13T06:51:32.440Z,13.63
2017-06-13T06:54:01.510Z,14.57
2017-06-13T06:56:30.576Z,14.47
2017-06-13T06:58:59.658Z,19.70
2017-06-13T07:01:28.725Z,16.67
2017-06-13T07:03:57.804Z,13.00
2017-06-13T07:06:27.636Z,15.10
2017-06-13T07:08:56.720Z,11.80
2017-06-13T07:11:26.559Z,14.37
2017-06-13T07:13:55.638Z,17.57
2017-06-13T07:16:25.469Z,13.57
2017-06-13T07:18:54.561Z,14.93
2017-06-13T07:21:23.627Z,20.30
2017-06-13T07:23:53.465Z,17.77
2017-06-13T07:26:22.566Z,19.17
2017-06-13T07:28:52.327Z,11.40
2017-06-13T07:31:21.547Z,16.53
2017-06-13T07:33:51.684Z,15.33
2017-06-13T07:36:20.752Z,11.67
2017-06-13T07:38:50.452Z,16.37
2017-06-13T07:41:19.516Z,12.00
2017-06-13T07:43:48.601Z,14.50
2017-06-13T07:46:17.661Z,15.13
2017-06-13T07:48:47.488Z,18.10
2017-06-13T07:51:16.567Z,16.07
2017-06-13T07:53:46.404Z,14.17
2017-06-13T07:56:15.477Z,15.07
2017-06-13T07:58:45.316Z,17.20
2017-06-13T08:01:14.425Z,13.70
2017-06-13T08:03:43.508Z,20.40
2017-06-13T08:06:12.552Z,13.83
2017-06-13T08:08:41.649Z,15.80
2017-06-13T08:11:10.939Z,17.00
2017-06-13T08:13:40.026Z,14.27
2017-06-13T08:16:09.144Z,16.03
2017-06-13T08:18:39.017Z,14.13
2017-06-13T08:21:08.076Z,15.13
2017-06-13T08:23:37.925Z,18.30
2017-06-13T08:26:07.565Z,13.97
2017-06-13T08:28:36.617Z,20.40
2017-06-13T08:31:05.752Z,17.83
2017-06-13T08:33:34.825Z,17.57
2017-06-13T08:36:03.889Z,21.73
2017-06-13T08:38:32.976Z,17.10
2017-06-13T08:41:02.064Z,15.17
2017-06-13T08:43:32.036Z,13.17
2017-06-13T08:46:01.097Z,15.77
2017-06-13T08:48:30.148Z,13.40
2017-06-13T08:50:59.239Z,13.87
2017-06-13T08:53:28.309Z,15.20
2017-06-13T08:55:57.359Z,17.37
2017-06-13T08:58:26.742Z,17.17
2017-06-13T09:00:55.764Z,15.53
2017-06-13T09:03:24.857Z,17.80
2017-06-13T09:05:53.909Z,15.90
2017-06-13T09:08:22.988Z,16.67
2017-06-13T09:10:52.039Z,14.50
2017-06-13T09:13:21.310Z,11.77
2017-06-13T09:15:50.392Z,13.27
2017-06-13T09:18:19.471Z,12.40
2017-06-13T09:20:48.534Z,12.10
2017-06-13T09:23:17.596Z,14.17
2017-06-13T09:25:46.665Z,17.43
2017-06-13T09:28:15.740Z,14.57
2017-06-13T09:30:45.109Z,14.40
2017-06-13T09:33:14.989Z,12.47
2017-06-13T09:35:44.050Z,13.00
2017-06-13T09:38:13.115Z,13.33
2017-06-13T09:40:43.081Z,12.37
2017-06-13T09:43:12.147Z,14.40
2017-06-13T09:45:41.219Z,8.37
2017-06-13T09:48:10.854Z,13.00
2017-06-13T09:50:39.912Z,12.87
2017-06-13T09:53:09.783Z,18.00
2017-06-13T09:55:39.737Z,15.60
2017-06-13T09:58:09.619Z,17.10
2017-06-13T10:00:38.660Z,11.47
2017-06-13T10:03:08.517Z,12.73
2017-06-13T10:05:37.867Z,9.57
2017-06-13T10:08:07.705Z,12.23
2017-06-13T10:10:37.544Z,10.03
2017-06-13T10:13:06.627Z,10.10
2017-06-13T10:15:35.684Z,13.73
2017-06-13T10:18:05.588Z,10.17
2017-06-13T10:20:34.620Z,10.87
2017-06-13T10:23:03.678Z,9.03
2017-06-13T10:25:33.520Z,9.03
2017-06-13T10:28:02.563Z,12.40
2017-06-13T10:30:31.627Z,11.70
2017-06-13T10:33:00.702Z,12.03
2017-06-13T10:35:29.766Z,5.43
2017-06-13T10:37:58.867Z,9.83
2017-06-13T10:40:27.950Z,7.93
2017-06-13T10:42:57.030Z,5.07
2017-06-13T10:45:26.063Z,3.83
2017-06-13T10:47:55.897Z,5.17
2017-06-13T10:50:24.987Z,6.23
2017-06-13T10:52:54.072Z,4.93
2017-06-13T10:55:23.156Z,5.43
2017-06-13T10:57:52.981Z,6.47
2017-06-13T11:00:22.096Z,4.03
2017-06-13T11:02:51.156Z,3.10
2017-06-13T11:05:21.003Z,6.27
2017-06-13T11:07:50.111Z,5.10
2017-06-13T11:10:19.151Z,3.67
2017-06-13T11:12:48.208Z,5.33
2017-06-13T11:15:17.286Z,4.93
2017-06-13T11:17:46.344Z,4.80
2017-06-13T11:20:16.176Z,5.63
2017-06-13T11:22:45.247Z,3.13
2017-06-13T11:25:14.680Z,5.33
2017-06-13T11:27:43.756Z,4.13
2017-06-13T11:30:12.837Z,7.47
2017-06-13T11:32:41.911Z,3.93
2017-06-13T11:35:10.968Z,2.30
2017-06-13T11:37:41.176Z,4.70
2017-06-13T11:40:10.240Z,4.10
2017-06-13T11:42:39.317Z,3.30
2017-06-13T11:45:08.663Z,5.70
2017-06-13T11:47:38.484Z,5.60
2017-06-13T11:50:07.556Z,4.00
2017-06-13T11:52:36.634Z,4.83
2017-06-13T11:55:06.026Z,3.43
2017-06-13T11:57:35.072Z,4.53
2017-06-13T12:00:04.274Z,4.80
2017-06-13T12:02:34.103Z,3.27
2017-06-13T12:05:03.219Z,3.60
2017-06-13T12:07:32.282Z,5.53
2017-06-13T12:10:01.467Z,3.60
2017-06-13T12:12:31.338Z,3.30
2017-06-13T12:15:00.395Z,3.77
2017-06-13T12:17:29.456Z,3.70
2017-06-13T12:19:59.287Z,6.03
2017-06-13T12:22:29.136Z,4.20
2017-06-13T12:24:58.196Z,5.03
2017-06-13T12:27:27.244Z,2.73
2017-06-13T12:29:56.324Z,5.93
2017-06-13T12:32:25.395Z,4.77
2017-06-13T12:34:54.577Z,3.40
2017-06-13T12:37:23.650Z,3.10
2017-06-13T12:39:53.480Z,8.17
2017-06-13T12:42:23.324Z,7.10
2017-06-13T12:44:52.466Z,4.97
2017-06-13T12:47:22.088Z,7.57
2017-06-13T12:49:52.306Z,4.37
2017-06-13T12:52:21.372Z,3.13
2017-06-13T12:54:52.417Z,4.33
2017-06-13T12:57:21.476Z,3.80
2017-06-13T12:59:51.182Z,6.17
2017-06-13T13:02:20.284Z,5.70
2017-06-13T13:04:49.428Z,3.77
2017-06-13T13:07:18.916Z,4.97
2017-06-13T13:09:48.063Z,6.77
2017-06-13T13:12:17.165Z,8.10
2017-06-13T13:14:46.235Z,4.57
2017-06-13T13:17:16.133Z,4.10
2017-06-13T13:19:45.166Z,9.67
2017-06-13T13:22:14.234Z,3.70
2017-06-13T13:24:43.295Z,7.30
2017-06-13T13:27:12.354Z,4.73
2017-06-13T13:29:41.419Z,4.50
2017-06-13T13:32:10.857Z,5.60
2017-06-13T13:34:39.935Z,3.93
2017-06-13T13:37:09.757Z,3.03
2017-06-13T13:39:39.572Z,5.80
2017-06-13T13:42:08.897Z,3.50
2017-06-13T13:44:37.968Z,5.80
2017-06-13T13:47:07.047Z,5.80
2017-06-13T13:49:36.853Z,3.70
2017-06-13T13:52:06.723Z,3.60
2017-06-13T13:54:35.791Z,5.00
2017-06-13T13:57:04.885Z,5.37
2017-06-13T13:59:33.945Z,6.17
2017-06-13T14:02:03.776Z,5.20
2017-06-13T14:04:33.613Z,5.80
2017-06-13T14:07:02.678Z,4.03
2017-06-13T14:09:31.739Z,3.53
2017-06-13T14:12:00.816Z,3.70
2017-06-13T14:14:29.869Z,3.70
2017-06-13T14:16:58.919Z,7.87
2017-06-13T14:19:27.992Z,4.60
2017-06-13T14:21:57.080Z,7.00
2017-06-13T14:24:26.156Z,4.00
2017-06-13T14:26:55.280Z,3.80
2017-06-13T14:29:24.320Z,5.23
2017-06-13T14:31:53.358Z,6.77
2017-06-13T14:34:22.776Z,4.80
2017-06-13T14:36:51.964Z,4.47
2017-06-13T14:39:21.056Z,4.13
2017-06-13T14:41:50.148Z,5.40
2017-06-13T14:44:19.245Z,8.77
2017-06-13T14:46:48.687Z,5.70
2017-06-13T14:49:19.358Z,7.73
2017-06-13T14:51:48.396Z,6.73
2017-06-13T14:54:17.769Z,6.03
2017-06-13T14:56:46.835Z,4.73
2017-06-13T14:59:16.095Z,5.03
2017-06-13T15:01:45.164Z,4.73
2017-06-13T15:04:14.259Z,4.40
2017-06-13T15:06:43.315Z,4.20
2017-06-13T15:09:12.517Z,3.70
2017-06-13T15:11:41.564Z,5.87
2017-06-13T15:14:10.756Z,4.20
2017-06-13T15:16:40.169Z,3.70
2017-06-13T15:19:09.348Z,4.17
2017-06-13T15:21:38.424Z,5.67
2017-06-13T15:24:07.484Z,5.67
2017-06-13T15:26:36.565Z,4.40
2017-06-13T15:29:05.676Z,3.47
2017-06-13T15:31:34.753Z,3.67
2017-06-13T15:34:03.831Z,7.20
2017-06-13T15:36:32.934Z,8.90
2017-06-13T15:39:02.003Z,4.00
2017-06-13T15:41:31.072Z,4.00
2017-06-13T15:44:00.900Z,4.37
2017-06-13T15:46:29.983Z,5.67
2017-06-13T15:48:59.824Z,10.67
2017-06-13T15:51:28.865Z,4.07
2017-06-13T15:53:57.917Z,3.90
2017-06-13T15:56:26.985Z,6.50
2017-06-13T15:58:57.088Z,10.57
2017-06-13T16:01:26.150Z,3.67
2017-06-13T16:03:55.192Z,6.43
2017-06-13T16:06:24.415Z,6.63
2017-06-13T16:08:53.764Z,7.33
2017-06-13T16:11:22.838Z,7.93
2017-06-13T16:13:51.943Z,5.67
2017-06-13T16:16:20.970Z,4.20
2017-06-13T16:18:50.907Z,4.23
2017-06-13T16:21:19.989Z,7.47
2017-06-13T16:23:50.135Z,3.80
2017-06-13T16:26:19.207Z,7.17
2017-06-13T16:28:48.559Z,5.30
2017-06-13T16:31:17.863Z,9.23
2017-06-13T16:33:46.919Z,5.63
2017-06-13T16:36:15.995Z,5.70
2017-06-13T16:38:45.833Z,6.20
2017-06-13T16:41:14.931Z,4.60
2017-06-13T16:43:44.002Z,7.70
2017-06-13T16:46:13.836Z,3.03
2017-06-13T16:48:42.899Z,5.30
2017-06-13T16:51:12.745Z,4.20
2017-06-13T16:53:41.804Z,4.80
2017-06-13T16:56:11.635Z,6.63
2017-06-13T16:58:40.676Z,3.20
2017-06-13T17:01:09.885Z,3.87
2017-06-13T17:03:38.936Z,4.10
2017-06-13T17:06:08.220Z,7.97
2017-06-13T17:08:37.280Z,6.80
2017-06-13T17:11:07.881Z,4.70
2017-06-13T17:13:38.493Z,7.20
2017-06-13T17:16:07.605Z,3.90
2017-06-13T17:18:36.670Z,5.40
2017-06-13T17:21:05.709Z,5.17
2017-06-13T17:23:34.803Z,4.80
2017-06-13T17:26:03.856Z,4.57
2017-06-13T17:28:32.956Z,4.53
2017-06-13T17:31:02.524Z,8.00
2017-06-13T17:33:31.585Z,5.83
2017-06-13T17:36:00.637Z,4.33
2017-06-13T17:38:30.940Z,4.27
2017-06-13T17:41:00.020Z,7.33
2017-06-13T17:43:29.117Z,6.17
2017-06-13T17:45:58.579Z,4.43
2017-06-13T17:48:27.641Z,5.27
2017-06-13T17:50:57.447Z,4.30
2017-06-13T17:53:26.502Z,15.60
2017-06-13T17:55:55.612Z,11.13
2017-06-13T17:58:24.884Z,10.70
2017-06-13T18:00:53.939Z,5.93
2017-06-13T18:03:23.772Z,3.90
2017-06-13T18:05:52.849Z,7.00
2017-06-13T18:08:21.959Z,5.63
2017-06-13T18:10:51.492Z,4.00
2017-06-13T18:13:20.596Z,4.50
2017-06-13T18:15:50.185Z,4.73
2017-06-13T18:18:19.243Z,5.03
2017-06-13T18:20:48.377Z,6.73
2017-06-13T18:23:18.488Z,4.63
2017-06-13T18:25:48.096Z,6.67
2017-06-13T18:28:17.167Z,5.17
2017-06-13T18:30:46.245Z,4.03
2017-06-13T18:33:15.385Z,5.70
2017-06-13T18:35:44.425Z,6.00
2017-06-13T18:38:13.524Z,8.03
2017-06-13T18:40:42.608Z,6.37
2017-06-13T18:43:11.652Z,5.20
2017-06-13T18:45:46.061Z,6.20
2017-06-13T18:48:16.446Z,4.30
2017-06-13T18:50:45.548Z,2.50
2017-06-13T18:53:14.657Z,4.10
2017-06-13T18:55:43.713Z,4.60
2017-06-13T18:58:12.904Z,3.83
2017-06-13T19:00:41.962Z,3.53
2017-06-13T19:03:12.192Z,3.23
2017-06-13T19:05:42.155Z,4.43
2017-06-13T19:08:11.239Z,4.10
2017-06-13T19:10:40.384Z,3.77
2017-06-13T19:13:09.511Z,3.37
2017-06-13T19:15:38.721Z,8.47
2017-06-13T19:18:07.812Z,3.27
2017-06-13T19:20:37.092Z,3.53
2017-06-13T19:23:07.584Z,4.87
2017-06-13T19:25:36.681Z,8.60
2017-06-13T19:28:06.340Z,5.90
2017-06-13T19:30:35.416Z,5.77
2017-06-13T19:33:05.285Z,2.77
2017-06-13T19:35:34.346Z,4.43
2017-06-13T19:38:03.444Z,3.60
2017-06-13T19:40:32.517Z,3.47
2017-06-13T19:43:02.357Z,4.83
2017-06-13T19:45:32.221Z,5.20
2017-06-13T19:48:01.263Z,2.80
2017-06-13T19:50:30.310Z,4.80
2017-06-13T19:52:59.380Z,3.33
2017-06-13T19:55:28.437Z,6.23
2017-06-13T19:57:57.886Z,3.00
2017-06-13T20:00:26.945Z,4.33
2017-06-13T20:02:56.635Z,6.93
2017-06-13T20:05:26.793Z,2.60
2017-06-13T20:07:55.856Z,6.20
2017-06-13T20:10:24.916Z,4.77
2017-06-13T20:12:54.730Z,3.43
2017-06-13T20:15:23.989Z,5.43
2017-06-13T20:17:53.293Z,4.57
2017-06-13T20:20:22.597Z,4.40
2017-06-13T20:23:10.183Z,6.57
2017-06-13T20:25:44.677Z,7.00
2017-06-13T20:28:16.873Z,3.20
2017-06-13T20:30:45.945Z,3.43
2017-06-13T20:33:15.004Z,4.20
2017-06-13T20:35:44.055Z,5.40
2017-06-13T20:38:13.928Z,4.23
2017-06-13T20:40:43.000Z,6.03
2017-06-13T20:43:12.052Z,3.83
2017-06-13T20:45:41.868Z,4.77
2017-06-13T20:48:11.727Z,3.33
2017-06-13T20:50:40.780Z,3.87
2017-06-13T20:53:10.599Z,3.43
2017-06-13T20:55:40.449Z,3.67
2017-06-13T20:58:09.667Z,3.97
2017-06-13T21:00:38.725Z,3.30
2017-06-13T21:03:07.905Z,3.43
2017-06-13T21:05:37.819Z,3.90
2017-06-13T21:08:07.648Z,4.63
2017-06-13T21:10:36.705Z,5.43
2017-06-13T21:13:05.792Z,5.97
2017-06-13T21:15:35.732Z,4.33
2017-06-13T21:18:05.566Z,5.33
2017-06-13T21:20:34.658Z,6.23
2017-06-13T21:23:03.737Z,4.03
2017-06-13T21:25:32.769Z,7.20
2017-06-13T21:28:01.847Z,5.53
2017-06-13T21:30:30.904Z,3.33
2017-06-13T21:32:59.979Z,4.00
2017-06-13T21:35:29.035Z,7.60
2017-06-13T21:37:58.097Z,3.70
2017-06-13T21:40:27.949Z,4.57
2017-06-13T21:42:57.035Z,3.73
2017-06-13T21:45:26.119Z,5.57
2017-06-13T21:47:55.944Z,4.27
2017-06-13T21:50:25.323Z,4.73
2017-06-13T21:52:54.366Z,4.60
2017-06-13T21:55:23.547Z,6.23
2017-06-13T21:57:52.636Z,5.50
2017-06-13T22:00:21.724Z,6.20
2017-06-13T22:02:52.020Z,4.60
2017-06-13T22:05:21.144Z,4.50
2017-06-13T22:07:50.693Z,5.37
2017-06-13T22:10:19.799Z,5.47
2017-06-13T22:12:49.185Z,5.30
2017-06-13T22:15:18.550Z,7.30
2017-06-13T22:17:48.024Z,7.20
2017-06-13T22:20:17.109Z,6.07
2017-06-13T22:22:46.716Z,7.53
2017-06-13T22:25:16.115Z,4.27
2017-06-13T22:27:45.442Z,5.47
2017-06-13T22:30:14.496Z,6.47
2017-06-13T22:32:43.540Z,6.50
2017-06-13T22:35:12.617Z,8.47
2017-06-13T22:37:41.669Z,6.13
2017-06-13T22:40:10.738Z,5.60
2017-06-13T22:42:39.799Z,5.17
2017-06-13T22:45:09.355Z,5.13
2017-06-13T22:47:38.397Z,8.17
2017-06-13T22:50:07.509Z,5.87
2017-06-13T22:52:36.580Z,5.97
2017-06-13T22:55:05.628Z,4.83
2017-06-13T22:57:34.760Z,5.67
2017-06-13T23:00:03.819Z,5.37
2017-06-13T23:02:32.852Z,8.97
2017-06-13T23:05:01.972Z,6.20
2017-06-13T23:07:31.065Z,7.70
2017-06-13T23:10:00.892Z,6.50
2017-06-13T23:12:29.961Z,6.50
2017-06-13T23:14:59.021Z,7.77
2017-06-13T23:17:28.072Z,7.23
2017-06-13T23:19:57.163Z,9.43
2017-06-13T23:22:26.191Z,8.50
2017-06-13T23:24:55.264Z,7.30
2017-06-13T23:27:24.303Z,8.37
2017-06-13T23:29:53.400Z,9.03
2017-06-13T23:32:22.445Z,9.80
2017-06-13T23:34:51.623Z,8.80
2017-06-13T23:37:20.692Z,11.20
2017-06-13T23:39:50.272Z,8.60
2017-06-13T23:42:19.329Z,8.43
2017-06-13T23:44:48.718Z,7.73
2017-06-13T23:47:18.352Z,8.27
2017-06-13T23:49:47.435Z,11.33
2017-06-13T23:52:16.514Z,7.70
2017-06-13T23:54:45.563Z,7.63
2017-06-13T23:57:14.692Z,10.30
2017-06-13T23:59:43.752Z,8.33
